createdAt,value
2022-12-07T00:01:10.938Z,14.05
2022-12-07T00:03:39.153Z,15.80
2022-12-07T00:06:07.991Z,14.88
2022-12-07T00:08:35.825Z,14.60
2022-12-07T00:11:04.394Z,14.82
2022-12-07T00:13:34.205Z,14.20
2022-12-07T00:16:06.401Z,14.60
2022-12-07T00:18:33.265Z,13.38
2022-12-07T00:21:11.302Z,15.18
2022-12-07T00:23:38.422Z,15.88
2022-12-07T00:26:26.255Z,16.08
2022-12-07T00:28:57.921Z,17.15
2022-12-07T00:31:27.291Z,16.40
2022-12-07T00:33:54.267Z,15.80
2022-12-07T00:36:26.973Z,16.67
2022-12-07T00:38:58.803Z,15.93
2022-12-07T00:41:27.369Z,14.43
2022-12-07T00:43:54.759Z,15.57
2022-12-07T00:46:22.364Z,17.38
2022-12-07T00:48:50.321Z,16.33
2022-12-07T00:51:18.664Z,16.23
2022-12-07T00:53:45.707Z,15.38
2022-12-07T00:56:26.968Z,16.27
2022-12-07T00:59:04.691Z,15.55
2022-12-07T01:01:36.766Z,15.15
2022-12-07T01:04:03.964Z,15.18
2022-12-07T01:06:31.532Z,14.02
2022-12-07T01:08:58.789Z,14.70
2022-12-07T01:11:28.555Z,14.15
2022-12-07T01:13:56.950Z,15.88
2022-12-07T01:16:25.819Z,16.27
2022-12-07T01:18:54.383Z,17.38
2022-12-07T01:21:23.521Z,17.30
2022-12-07T01:23:51.325Z,17.40
2022-12-07T01:26:21.415Z,19.80
2022-12-07T01:28:48.302Z,20.00
2022-12-07T01:31:18.589Z,21.48
2022-12-07T01:33:49.710Z,22.35
2022-12-07T01:36:25.108Z,22.05
2022-12-07T01:38:57.754Z,23.77
2022-12-07T01:41:27.361Z,23.23
2022-12-07T01:44:15.064Z,22.83
2022-12-07T01:46:44.641Z,23.02
2022-12-07T01:49:33.421Z,22.23
2022-12-07T01:52:15.153Z,22.00
2022-12-07T01:54:43.401Z,23.27
2022-12-07T01:57:10.388Z,23.10
2022-12-07T01:59:37.498Z,22.80
2022-12-07T02:02:09.014Z,23.77
2022-12-07T02:04:37.114Z,23.25
2022-12-07T02:07:05.585Z,23.23
2022-12-07T02:09:32.203Z,24.13
2022-12-07T02:11:58.859Z,24.52
2022-12-07T02:14:25.545Z,24.50
2022-12-07T02:17:21.551Z,24.35
2022-12-07T02:20:14.839Z,23.95
2022-12-07T02:22:58.721Z,24.08
2022-12-07T02:26:12.404Z,23.30
2022-12-07T02:29:06.136Z,23.05
2022-12-07T02:31:33.404Z,23.77
2022-12-07T02:34:10.880Z,23.35
2022-12-07T02:37:01.783Z,23.17
2022-12-07T02:39:38.278Z,23.55
2022-12-07T02:42:14.329Z,21.95
2022-12-07T02:44:41.745Z,22.17
2022-12-07T02:47:11.883Z,20.25
2022-12-07T02:49:40.354Z,21.27
2022-12-07T02:52:07.033Z,22.13
2022-12-07T02:54:33.711Z,22.10
2022-12-07T02:57:32.899Z,22.92
2022-12-07T03:00:09.757Z,22.52
2022-12-07T03:02:47.156Z,21.75
2022-12-07T03:05:38.611Z,22.25
2022-12-07T03:08:28.028Z,23.60
2022-12-07T03:11:01.726Z,24.67
2022-12-07T03:13:43.277Z,23.02
2022-12-07T03:16:14.028Z,22.42
2022-12-07T03:19:04.663Z,24.05
2022-12-07T03:21:59.040Z,23.15
2022-12-07T03:24:34.856Z,22.42
2022-12-07T03:27:10.550Z,23.25
2022-12-07T03:29:43.293Z,23.45
2022-12-07T03:32:17.058Z,23.83
2022-12-07T03:35:12.708Z,24.85
2022-12-07T03:37:49.473Z,24.23
2022-12-07T03:40:35.467Z,24.67
2022-12-07T03:43:04.522Z,25.00
2022-12-07T03:45:43.197Z,24.38
2022-12-07T03:48:26.560Z,22.63
2022-12-07T03:51:11.650Z,24.95
2022-12-07T03:53:44.396Z,26.13
2022-12-07T03:56:12.663Z,24.95
2022-12-07T03:58:40.997Z,25.25
2022-12-07T04:01:07.808Z,25.77
2022-12-07T04:03:34.413Z,28.48
2022-12-07T04:06:01.590Z,27.25
2022-12-07T04:08:28.177Z,26.27
2022-12-07T04:10:54.874Z,27.15
2022-12-07T04:13:21.480Z,27.55
2022-12-07T04:15:48.209Z,28.05
2022-12-07T04:18:15.054Z,26.17
2022-12-07T04:20:42.282Z,26.70
2022-12-07T04:23:08.830Z,26.08
2022-12-07T04:25:35.548Z,25.52
2022-12-07T04:28:02.108Z,27.33
2022-12-07T04:30:29.281Z,26.77
2022-12-07T04:32:55.892Z,24.70
2022-12-07T04:35:22.477Z,26.00
2022-12-07T04:37:49.228Z,26.08
2022-12-07T04:40:15.875Z,25.98
2022-12-07T04:42:42.432Z,28.52
2022-12-07T04:45:09.617Z,27.80
2022-12-07T04:47:36.460Z,28.42
2022-12-07T04:50:03.513Z,28.63
2022-12-07T04:52:30.449Z,28.63
2022-12-07T04:54:57.197Z,28.25
2022-12-07T04:57:23.976Z,28.33
2022-12-07T04:59:50.574Z,28.60
2022-12-07T05:02:17.183Z,29.48
2022-12-07T05:04:43.886Z,29.45
2022-12-07T05:07:10.718Z,30.70
2022-12-07T05:09:37.272Z,34.22
2022-12-07T05:12:04.014Z,34.70
2022-12-07T05:14:31.069Z,34.80
2022-12-07T05:16:57.639Z,35.38
2022-12-07T05:19:24.305Z,34.58
2022-12-07T05:21:51.062Z,34.45
2022-12-07T05:24:18.178Z,32.85
2022-12-07T05:26:46.015Z,34.05
2022-12-07T05:29:14.797Z,33.00
2022-12-07T05:31:41.598Z,35.53
2022-12-07T05:34:08.271Z,33.08
2022-12-07T05:36:35.054Z,32.67
2022-12-07T05:39:01.702Z,33.08
2022-12-07T05:41:47.207Z,31.33
2022-12-07T05:44:13.830Z,34.13
2022-12-07T05:46:40.518Z,30.83
2022-12-07T05:49:07.181Z,30.38
2022-12-07T05:51:33.800Z,29.45
2022-12-07T05:54:00.375Z,29.45
2022-12-07T05:56:27.893Z,31.10
2022-12-07T05:59:14.215Z,31.20
2022-12-07T06:01:41.392Z,32.40
2022-12-07T06:04:08.599Z,31.95
2022-12-07T06:06:35.239Z,32.53
2022-12-07T06:09:02.296Z,32.80
2022-12-07T06:11:47.347Z,27.00
2022-12-07T06:14:14.106Z,26.95
2022-12-07T06:16:40.829Z,28.17
2022-12-07T06:19:07.502Z,24.58
2022-12-07T06:21:34.141Z,25.67
2022-12-07T06:24:00.763Z,22.38
2022-12-07T06:26:27.498Z,22.90
2022-12-07T06:28:54.173Z,27.88
2022-12-07T06:31:20.774Z,24.73
2022-12-07T06:33:47.526Z,25.70
2022-12-07T06:36:14.635Z,25.52
2022-12-07T06:38:41.553Z,24.33
2022-12-07T06:41:08.369Z,27.63
2022-12-07T06:43:35.275Z,26.20
2022-12-07T06:46:02.231Z,24.85
2022-12-07T06:48:29.035Z,25.38
2022-12-07T06:50:55.710Z,26.40
2022-12-07T06:53:23.059Z,25.73
2022-12-07T06:55:49.740Z,20.63
2022-12-07T06:58:16.354Z,25.15
2022-12-07T07:00:44.271Z,32.38
2022-12-07T07:03:11.177Z,32.72
2022-12-07T07:05:37.795Z,37.92
2022-12-07T07:08:21.951Z,37.08
2022-12-07T07:10:49.545Z,35.75
2022-12-07T07:13:16.452Z,38.38
2022-12-07T07:15:43.564Z,40.13
2022-12-07T07:18:10.358Z,40.70
2022-12-07T07:20:37.426Z,33.10
2022-12-07T07:23:04.133Z,33.88
2022-12-07T07:25:31.077Z,30.27
2022-12-07T07:27:57.716Z,29.52
2022-12-07T07:30:25.036Z,30.88
2022-12-07T07:32:51.841Z,27.27
2022-12-07T07:35:18.534Z,29.25
2022-12-07T07:37:45.159Z,28.58
2022-12-07T07:40:12.437Z,27.98
2022-12-07T07:42:39.053Z,27.20
2022-12-07T07:45:06.028Z,27.55
2022-12-07T07:47:32.663Z,30.10
2022-12-07T07:49:59.763Z,28.75
2022-12-07T07:52:26.605Z,27.98
2022-12-07T07:54:53.350Z,29.00
2022-12-07T07:57:20.635Z,27.17
2022-12-07T07:59:47.311Z,27.73
2022-12-07T08:02:19.618Z,29.08
2022-12-07T08:04:47.294Z,30.80
2022-12-07T08:07:15.811Z,32.00
2022-12-07T08:09:43.161Z,36.50
2022-12-07T08:12:10.271Z,37.83
2022-12-07T08:14:36.948Z,40.70
2022-12-07T08:17:03.758Z,42.20
2022-12-07T08:19:30.391Z,38.60
2022-12-07T08:21:57.839Z,32.95
2022-12-07T08:24:26.027Z,33.60
2022-12-07T08:26:53.416Z,29.65
2022-12-07T08:29:20.267Z,28.25
2022-12-07T08:31:47.547Z,28.27
2022-12-07T08:34:15.131Z,29.27
2022-12-07T08:36:42.072Z,29.00
2022-12-07T08:39:30.843Z,31.20
2022-12-07T08:41:55.863Z,30.05
2022-12-07T08:44:22.898Z,28.60
2022-12-07T08:46:58.450Z,31.10
2022-12-07T08:49:33.861Z,31.23
2022-12-07T08:52:00.630Z,30.95
2022-12-07T08:54:28.721Z,30.20
2022-12-07T08:56:59.509Z,29.83
2022-12-07T08:59:28.370Z,30.98
2022-12-07T09:01:55.226Z,31.35
2022-12-07T09:04:22.468Z,31.08
2022-12-07T09:06:50.830Z,33.58
2022-12-07T09:09:17.585Z,32.35
2022-12-07T09:11:46.370Z,29.63
2022-12-07T09:14:13.928Z,28.88
2022-12-07T09:16:41.092Z,30.95
2022-12-07T09:19:09.338Z,30.08
2022-12-07T09:21:36.511Z,29.60
2022-12-07T09:24:03.417Z,28.23
2022-12-07T09:26:30.605Z,31.15
2022-12-07T09:28:57.245Z,29.70
2022-12-07T09:31:25.450Z,26.83
2022-12-07T09:33:58.069Z,24.75
2022-12-07T09:36:25.835Z,23.45
2022-12-07T09:38:53.017Z,25.10
2022-12-07T09:41:20.611Z,22.60
2022-12-07T09:43:48.409Z,21.80
2022-12-07T09:46:18.704Z,22.27
2022-12-07T09:48:48.799Z,22.63
2022-12-07T09:51:33.565Z,22.77
2022-12-07T09:54:01.459Z,22.40
2022-12-07T09:56:31.734Z,22.02
2022-12-07T09:59:04.126Z,19.98
2022-12-07T10:01:33.710Z,19.10
2022-12-07T10:04:10.606Z,20.83
2022-12-07T10:06:37.340Z,20.00
2022-12-07T10:09:11.320Z,20.58
2022-12-07T10:12:02.313Z,20.02
2022-12-07T10:17:41.855Z,19.75
2022-12-07T10:20:21.020Z,20.50
2022-12-07T10:23:18.164Z,20.83
2022-12-07T10:25:46.558Z,19.65
2022-12-07T10:28:17.735Z,20.98
2022-12-07T10:31:16.529Z,18.52
2022-12-07T10:33:58.248Z,20.13
2022-12-07T10:36:45.090Z,19.67
2022-12-07T10:39:15.584Z,20.73
2022-12-07T10:42:03.625Z,21.67
2022-12-07T10:44:35.700Z,22.00
2022-12-07T10:47:16.070Z,21.45
2022-12-07T10:50:04.079Z,21.75
2022-12-07T10:52:50.884Z,20.75
2022-12-07T10:55:27.977Z,20.40
2022-12-07T10:58:13.354Z,22.08
2022-12-07T11:01:08.289Z,21.40
2022-12-07T11:04:21.445Z,20.50
2022-12-07T11:07:03.228Z,21.52
2022-12-07T11:10:10.693Z,19.98
2022-12-07T11:12:53.662Z,19.63
2022-12-07T11:15:20.235Z,20.33
2022-12-07T11:18:13.775Z,19.10
2022-12-07T11:20:53.060Z,18.13
2022-12-07T11:23:33.647Z,15.93
2022-12-07T11:26:15.813Z,15.75
2022-12-07T11:29:03.318Z,16.73
2022-12-07T11:31:58.254Z,17.02
2022-12-07T11:35:10.692Z,16.90
2022-12-07T11:40:29.055Z,15.20
2022-12-07T11:43:20.288Z,16.67
2022-12-07T11:45:55.404Z,15.43
2022-12-07T11:48:32.937Z,16.05
2022-12-07T11:51:03.626Z,16.92
2022-12-07T11:53:45.327Z,17.00
2022-12-07T11:56:18.296Z,16.35
2022-12-07T11:59:11.555Z,16.00
2022-12-07T12:01:44.602Z,16.08
2022-12-07T12:04:11.213Z,15.73
2022-12-07T12:06:40.214Z,14.38
2022-12-07T12:15:50.213Z,16.08
2022-12-07T12:18:44.142Z,15.68
2022-12-07T12:21:19.885Z,15.15
2022-12-07T12:23:56.378Z,15.20
2022-12-07T12:26:27.028Z,16.70
2022-12-07T12:29:00.332Z,15.10
2022-12-07T12:31:36.574Z,13.82
2022-12-07T12:34:25.168Z,15.27
2022-12-07T12:36:51.854Z,16.05
2022-12-07T12:39:20.061Z,15.38
2022-12-07T12:41:47.053Z,16.83
2022-12-07T12:44:16.614Z,17.00
2022-12-07T12:47:01.226Z,16.33
2022-12-07T12:49:27.859Z,14.23
2022-12-07T12:52:13.285Z,13.50
2022-12-07T12:54:58.022Z,16.10
2022-12-07T12:57:30.033Z,14.95
2022-12-07T12:59:57.027Z,12.95
2022-12-07T13:02:32.901Z,14.68
2022-12-07T13:05:09.014Z,14.13
2022-12-07T13:07:48.168Z,14.00
2022-12-07T13:10:29.632Z,14.23
2022-12-07T13:13:16.103Z,14.23
2022-12-07T13:15:55.110Z,12.07
2022-12-07T13:18:31.157Z,12.15
2022-12-07T13:21:02.622Z,12.05
2022-12-07T13:23:38.504Z,12.40
2022-12-07T13:26:42.345Z,12.43
2022-12-07T13:29:21.420Z,12.15
2022-12-07T13:31:52.732Z,12.60
2022-12-07T13:34:37.783Z,12.50
2022-12-07T13:37:19.819Z,13.23
2022-12-07T13:39:50.437Z,14.02
2022-12-07T13:42:31.747Z,13.32
2022-12-07T13:45:01.113Z,12.70
2022-12-07T13:47:55.700Z,12.60
2022-12-07T13:50:32.093Z,9.90
2022-12-07T13:53:02.430Z,9.35
2022-12-07T13:55:31.120Z,10.13
2022-12-07T13:57:57.938Z,10.85
2022-12-07T14:00:27.548Z,9.98
2022-12-07T14:03:05.816Z,11.25
2022-12-07T14:05:34.686Z,9.77
2022-12-07T14:08:22.939Z,9.10
2022-12-07T14:10:49.500Z,9.05
2022-12-07T14:13:36.328Z,11.43
2022-12-07T14:16:05.406Z,11.05
2022-12-07T14:18:40.974Z,10.57
2022-12-07T14:21:10.885Z,9.85
2022-12-07T14:23:39.594Z,10.35
2022-12-07T14:26:14.588Z,10.93
2022-12-07T14:28:42.816Z,10.32
2022-12-07T14:31:22.673Z,10.23
2022-12-07T14:33:51.832Z,11.60
2022-12-07T14:36:18.630Z,10.88
2022-12-07T14:38:45.992Z,11.40
2022-12-07T14:41:41.518Z,11.13
2022-12-07T14:44:24.839Z,10.27
2022-12-07T14:49:40.611Z,9.80
2022-12-07T14:55:00.304Z,10.75
2022-12-07T14:57:27.138Z,10.68
2022-12-07T14:59:53.984Z,11.35
2022-12-07T15:02:21.037Z,10.05
2022-12-07T15:04:48.107Z,11.55
2022-12-07T15:07:22.358Z,12.45
2022-12-07T15:09:50.211Z,11.73
2022-12-07T15:12:19.475Z,11.95
2022-12-07T15:14:47.623Z,12.75
2022-12-07T15:17:25.999Z,14.10
2022-12-07T15:19:54.773Z,14.07
2022-12-07T15:22:21.374Z,16.23
2022-12-07T15:24:48.216Z,15.95
2022-12-07T15:27:14.934Z,16.20
2022-12-07T15:29:41.600Z,14.82
2022-12-07T15:32:09.402Z,17.67
2022-12-07T15:34:40.379Z,16.45
2022-12-07T15:37:08.720Z,16.40
2022-12-07T15:39:38.301Z,17.75
2022-12-07T15:42:05.118Z,17.58
2022-12-07T15:44:50.516Z,16.02
2022-12-07T15:47:17.125Z,13.32
2022-12-07T15:49:44.360Z,12.90
2022-12-07T15:52:11.520Z,13.45
2022-12-07T15:54:38.467Z,17.42
2022-12-07T15:57:05.212Z,17.73
2022-12-07T15:59:31.972Z,20.15
2022-12-07T16:01:58.929Z,20.70
2022-12-07T16:04:27.625Z,21.27
2022-12-07T16:06:54.552Z,24.45
2022-12-07T16:09:22.651Z,21.35
2022-12-07T16:11:51.581Z,21.88
2022-12-07T16:14:18.636Z,23.35
2022-12-07T16:16:45.439Z,22.25
2022-12-07T16:19:12.485Z,23.10
2022-12-07T16:21:40.061Z,21.17
2022-12-07T16:24:07.604Z,21.83
2022-12-07T16:26:34.314Z,22.17
2022-12-07T16:29:01.120Z,19.98
2022-12-07T16:31:28.542Z,21.35
2022-12-07T16:33:57.286Z,20.52
2022-12-07T16:36:55.170Z,21.08
2022-12-07T16:39:12.234Z,21.10
2022-12-07T16:41:38.959Z,26.80
2022-12-07T16:44:08.995Z,28.33
2022-12-07T16:46:37.683Z,30.20
2022-12-07T16:49:05.560Z,25.55
2022-12-07T16:51:33.912Z,23.98
2022-12-07T16:54:00.693Z,24.42
2022-12-07T16:56:28.220Z,24.98
2022-12-07T16:58:56.083Z,24.08
2022-12-07T17:01:23.758Z,33.38
2022-12-07T17:03:50.770Z,35.30
2022-12-07T17:06:23.180Z,37.38
2022-12-07T17:08:51.646Z,36.35
2022-12-07T17:11:21.652Z,40.78
2022-12-07T17:14:07.478Z,38.28
2022-12-07T17:16:36.021Z,39.30
2022-12-07T17:19:10.106Z,36.55
2022-12-07T17:21:37.022Z,36.25
2022-12-07T17:24:06.542Z,37.58
2022-12-07T17:26:35.979Z,39.83
2022-12-07T17:29:05.199Z,36.30
2022-12-07T17:31:33.603Z,37.17
2022-12-07T17:34:00.771Z,40.28
2022-12-07T17:36:30.265Z,41.88
2022-12-07T17:38:57.757Z,36.15
2022-12-07T17:41:45.443Z,35.45
2022-12-07T17:44:16.623Z,40.58
2022-12-07T17:46:44.100Z,41.70
2022-12-07T17:49:11.059Z,30.63
2022-12-07T17:51:56.153Z,36.33
2022-12-07T17:54:23.333Z,37.70
2022-12-07T17:56:50.289Z,36.88
2022-12-07T17:59:17.388Z,36.90
2022-12-07T18:01:45.774Z,34.33
2022-12-07T18:04:12.759Z,36.40
2022-12-07T18:06:39.895Z,37.47
2022-12-07T18:09:07.802Z,35.97
2022-12-07T18:11:35.141Z,41.88
2022-12-07T18:14:02.337Z,39.08
2022-12-07T18:16:31.208Z,40.22
2022-12-07T18:19:07.986Z,39.55
2022-12-07T18:21:35.002Z,39.95
2022-12-07T18:24:03.814Z,40.63
2022-12-07T18:26:33.401Z,39.22
2022-12-07T18:29:01.365Z,40.80
2022-12-07T18:31:29.390Z,41.33
2022-12-07T18:34:00.770Z,38.40
2022-12-07T18:36:27.643Z,38.40
2022-12-07T18:38:54.276Z,39.58
2022-12-07T18:41:21.144Z,42.30
2022-12-07T18:43:48.190Z,42.17
2022-12-07T18:46:21.281Z,41.55
2022-12-07T18:48:50.551Z,43.50
2022-12-07T18:51:19.120Z,43.10
2022-12-07T18:53:46.078Z,44.75
2022-12-07T18:56:18.298Z,40.90
2022-12-07T18:59:14.801Z,39.45
2022-12-07T19:01:43.735Z,40.63
2022-12-07T19:04:11.011Z,40.63
2022-12-07T19:06:38.234Z,39.08
2022-12-07T19:09:05.153Z,38.17
2022-12-07T19:11:52.412Z,33.53
2022-12-07T19:14:30.238Z,37.08
2022-12-07T19:17:06.681Z,28.60
2022-12-07T19:19:37.389Z,30.35
2022-12-07T19:22:04.742Z,25.05
2022-12-07T19:24:31.810Z,26.23
2022-12-07T19:26:59.191Z,23.63
2022-12-07T19:29:28.472Z,25.30
2022-12-07T19:31:55.240Z,23.83
2022-12-07T19:34:22.204Z,24.65
2022-12-07T19:36:49.946Z,22.10
2022-12-07T19:39:17.113Z,21.63
2022-12-07T19:41:44.997Z,21.88
2022-12-07T19:44:17.414Z,21.23
2022-12-07T19:46:47.114Z,20.88
2022-12-07T19:49:16.497Z,22.05
2022-12-07T19:51:45.151Z,21.20
2022-12-07T19:54:15.246Z,20.58
2022-12-07T19:56:43.129Z,20.15
2022-12-07T19:59:10.255Z,19.60
2022-12-07T20:01:41.001Z,18.23
2022-12-07T20:04:25.493Z,18.17
2022-12-07T20:06:55.115Z,20.95
2022-12-07T20:09:22.360Z,18.50
2022-12-07T20:12:07.573Z,19.40
2022-12-07T20:14:35.548Z,20.05
2022-12-07T20:17:02.535Z,19.80
2022-12-07T20:19:29.658Z,20.55
2022-12-07T20:21:56.356Z,20.77
2022-12-07T20:24:25.186Z,19.80
2022-12-07T20:26:53.397Z,17.95
2022-12-07T20:29:23.033Z,18.45
2022-12-07T20:31:50.992Z,18.27
2022-12-07T20:34:18.179Z,19.60
2022-12-07T20:36:45.745Z,18.52
2022-12-07T20:39:13.336Z,17.75
2022-12-07T20:41:58.676Z,18.17
2022-12-07T20:44:25.844Z,17.77
2022-12-07T20:46:53.047Z,17.60
2022-12-07T20:49:19.677Z,18.25
2022-12-07T20:51:47.218Z,18.15
2022-12-07T20:54:14.689Z,17.77
2022-12-07T20:56:41.552Z,20.63
2022-12-07T20:59:12.594Z,20.15
2022-12-07T21:01:40.230Z,19.40
2022-12-07T21:04:07.427Z,20.63
2022-12-07T21:06:35.218Z,20.05
2022-12-07T21:09:02.168Z,19.73
2022-12-07T21:11:31.063Z,18.92
2022-12-07T21:13:57.928Z,21.13
2022-12-07T21:16:28.292Z,22.20
2022-12-07T21:18:57.222Z,25.63
2022-12-07T21:21:24.292Z,24.60
2022-12-07T21:24:00.038Z,28.27
2022-12-07T21:26:28.975Z,26.20
2022-12-07T21:28:58.078Z,28.17
2022-12-07T21:31:25.085Z,25.52
2022-12-07T21:33:51.828Z,23.38
2022-12-07T21:36:25.867Z,23.95
2022-12-07T21:38:53.147Z,23.13
2022-12-07T21:41:31.794Z,22.85
2022-12-07T21:43:59.458Z,23.58
2022-12-07T21:46:33.210Z,24.40
2022-12-07T21:49:04.823Z,25.50
2022-12-07T21:51:32.018Z,25.45
2022-12-07T21:54:00.407Z,26.63
2022-12-07T21:56:32.864Z,26.90
2022-12-07T21:59:02.165Z,25.98
2022-12-07T22:01:31.166Z,27.95
2022-12-07T22:03:58.059Z,27.10
2022-12-07T22:06:26.626Z,27.80
2022-12-07T22:08:54.839Z,29.38
2022-12-07T22:11:22.008Z,27.42
2022-12-07T22:14:10.676Z,28.67
2022-12-07T22:16:39.130Z,28.05
2022-12-07T22:19:07.405Z,28.95
2022-12-07T22:21:35.164Z,29.63
2022-12-07T22:24:02.318Z,29.60
2022-12-07T22:26:29.337Z,29.23
2022-12-07T22:28:55.985Z,33.03
2022-12-07T22:31:23.723Z,32.30
2022-12-07T22:33:50.899Z,31.55
2022-12-07T22:36:18.533Z,33.08
2022-12-07T22:38:46.149Z,35.38
2022-12-07T22:41:31.679Z,39.75
2022-12-07T22:43:59.401Z,36.97
2022-12-07T22:46:26.742Z,41.17
2022-12-07T22:48:54.181Z,41.70
2022-12-07T22:51:32.148Z,42.47
2022-12-07T22:54:00.804Z,42.35
2022-12-07T22:56:31.293Z,43.70
2022-12-07T22:58:58.233Z,46.47
2022-12-07T23:01:25.395Z,45.88
2022-12-07T23:03:52.495Z,46.95
2022-12-07T23:06:25.757Z,46.80
2022-12-07T23:08:53.054Z,48.35
2022-12-07T23:11:43.041Z,47.25
2022-12-07T23:14:22.251Z,47.33
2022-12-07T23:16:49.043Z,45.92
2022-12-07T23:19:15.749Z,46.85
2022-12-07T23:21:43.417Z,48.08
2022-12-07T23:24:13.339Z,46.90
2022-12-07T23:26:41.576Z,45.65
2022-12-07T23:29:10.890Z,45.83
2022-12-07T23:31:40.060Z,44.90
2022-12-07T23:34:07.472Z,45.58
2022-12-07T23:36:34.205Z,46.47
2022-12-07T23:39:01.451Z,44.80
2022-12-07T23:41:30.852Z,35.85
2022-12-07T23:44:00.051Z,45.53
2022-12-07T23:46:30.154Z,37.78
2022-12-07T23:48:58.040Z,30.17
2022-12-07T23:51:25.394Z,34.17
2022-12-07T23:53:53.710Z,41.92
2022-12-07T23:56:23.489Z,43.85
2022-12-07T23:58:51.647Z,41.58
